Time;durP1;ratioP1;P1;durP2;ratioP2;P2;SDS_P1;SDS_P2;PMS_P1;PMS_P2;Temp;Humidity;BMP_temperature;BMP_pressure;BME280_temperature;BME280_humidity;BME280_pressure;Samples;Min_cycle;Max_cycle;Signal;HPM_P1;HPM_P2
2022/12/12 00:01:30;;;;;;;;;;;;;;;17.53;44.23;99403.85;101988;1327;61745;-84
2022/12/12 00:03:56;;;;;;;;;;;;;;;17.52;44.30;99407.29;101955;1329;73652;-84
2022/12/12 00:06:21;;;;;;;;;;;;;;;17.52;44.27;99407.11;102034;1329;61309;-84
2022/12/12 00:08:47;;;;;;;;;;;;;;;17.52;44.19;99411.05;102014;1329;60103;-83
2022/12/12 00:11:12;;;;;;;;;;;;;;;17.52;44.18;99418.32;102081;1332;61287;-84
2022/12/12 00:13:38;;;;;;;;;;;;;;;17.51;44.29;99424.63;101995;1329;61419;-84
2022/12/12 00:16:06;;;;;;;;;;;;;;;17.52;44.02;99435.45;101995;1326;61413;-83
2022/12/12 00:18:32;;;;;;;;;;;;;;;17.52;44.07;99428.70;102052;1333;75308;-83
2022/12/12 00:20:57;;;;;;;;;;;;;;;17.51;44.15;99429.80;102056;1323;61325;-84
2022/12/12 00:23:24;;;;;;;;;;;;;;;17.51;44.05;99434.77;102072;1335;61312;-84
2022/12/12 00:25:57;;;;;;;;;;;;;;;17.51;44.04;99437.63;101971;1328;61312;-84
2022/12/12 00:28:22;;;;;;;;;;;;;;;17.51;43.99;99434.61;101979;1328;74766;-84
2022/12/12 00:30:48;;;;;;;;;;;;;;;17.51;43.86;99436.79;102037;1327;61279;-84
2022/12/12 00:33:13;;;;;;;;;;;;;;;17.50;43.96;99430.77;102058;1331;61275;-84
2022/12/12 00:35:43;;;;;;;;;;;;;;;17.50;43.91;99435.60;102079;1330;61352;-85
2022/12/12 00:38:08;;;;;;;;;;;;;;;17.50;43.88;99432.93;102030;1328;61231;-84
2022/12/12 00:40:34;;;;;;;;;;;;;;;17.50;43.94;99438.13;102058;1327;61389;-84
2022/12/12 00:42:59;;;;;;;;;;;;;;;17.50;43.81;99437.58;102065;1330;61400;-84
2022/12/12 00:45:24;;;;;;;;;;;;;;;17.49;43.76;99437.43;102049;1327;61389;-84
2022/12/12 00:47:50;;;;;;;;;;;;;;;17.49;43.80;99435.33;102010;1329;61298;-84
2022/12/12 00:50:15;;;;;;;;;;;;;;;17.49;43.89;99433.23;101976;1336;61709;-85
2022/12/12 00:52:41;;;;;;;;;;;;;;;17.48;43.79;99434.29;102044;1327;61341;-84
2022/12/12 00:55:06;;;;;;;;;;;;;;;17.48;43.81;99435.91;102039;1329;61352;-84
2022/12/12 00:57:33;;;;;;;;;;;;;;;17.48;43.80;99436.48;102047;1331;59424;-84
2022/12/12 00:59:58;;;;;;;;;;;;;;;17.48;43.55;99431.15;102044;1333;61275;-83
2022/12/12 01:02:24;;;;;;;;;;;;;;;17.47;43.72;99434.58;101974;1329;61324;-85
2022/12/12 01:04:49;;;;;;;;;;;;;;;17.47;43.80;99439.71;101928;1333;61333;-85
2022/12/12 01:07:15;;;;;;;;;;;;;;;17.47;43.68;99443.30;101935;1329;61411;-84
2022/12/12 01:09:40;;;;;;;;;;;;;;;17.47;43.70;99454.69;102054;1333;61312;-84
2022/12/12 01:12:06;;;;;;;;;;;;;;;17.47;43.67;99455.23;101985;1336;61410;-84
2022/12/12 01:14:31;;;;;;;;;;;;;;;17.46;43.60;99459.69;102020;1320;61300;-84
2022/12/12 01:16:57;;;;;;;;;;;;;;;17.46;43.60;99455.31;101993;1329;61418;-84
2022/12/12 01:19:22;;;;;;;;;;;;;;;17.46;43.54;99459.20;101971;1329;61503;-84
2022/12/12 01:21:47;;;;;;;;;;;;;;;17.45;43.52;99457.84;101951;1336;61282;-84
2022/12/12 01:24:13;;;;;;;;;;;;;;;17.45;43.58;99457.34;101981;1336;61354;-84
2022/12/12 01:26:38;;;;;;;;;;;;;;;17.45;43.43;99452.91;102024;1331;61315;-84
2022/12/12 01:29:03;;;;;;;;;;;;;;;17.44;43.42;99444.73;101979;1329;61385;-83
2022/12/12 01:31:29;;;;;;;;;;;;;;;17.44;43.40;99450.80;101950;1335;61327;-84
2022/12/12 01:33:54;;;;;;;;;;;;;;;17.44;43.39;99446.92;101970;1329;61314;-84
2022/12/12 01:36:20;;;;;;;;;;;;;;;17.43;43.35;99446.96;102020;1333;61407;-84
2022/12/12 01:38:46;;;;;;;;;;;;;;;17.44;43.33;99457.41;101940;1329;75501;-84
2022/12/12 01:41:12;;;;;;;;;;;;;;;17.43;43.26;99455.48;102040;1333;61494;-83
2022/12/12 01:43:37;;;;;;;;;;;;;;;17.43;43.28;99464.58;102065;1332;61313;-82
2022/12/12 01:46:03;;;;;;;;;;;;;;;17.43;43.22;99474.88;101968;1329;60095;-83
2022/12/12 01:48:30;;;;;;;;;;;;;;;17.42;43.23;99482.92;102090;1333;61318;-83
2022/12/12 01:50:56;;;;;;;;;;;;;;;17.43;43.25;99488.08;101961;1330;75714;-84
2022/12/12 01:53:22;;;;;;;;;;;;;;;17.42;43.22;99495.73;101965;1335;61418;-83
2022/12/12 01:55:47;;;;;;;;;;;;;;;17.42;43.15;99497.34;102067;1327;61440;-83
2022/12/12 01:58:13;;;;;;;;;;;;;;;17.42;43.23;99508.90;102020;1335;59430;-83
2022/12/12 02:00:38;;;;;;;;;;;;;;;17.42;43.11;99516.42;101990;1332;61342;-84
2022/12/12 02:03:04;;;;;;;;;;;;;;;17.41;43.08;99523.91;102107;1329;61309;-85
2022/12/12 02:05:30;;;;;;;;;;;;;;;17.42;43.09;99534.20;102042;1329;61289;-84
2022/12/12 02:07:56;;;;;;;;;;;;;;;17.41;43.01;99535.16;102080;1329;61412;-86
2022/12/12 02:10:21;;;;;;;;;;;;;;;17.41;43.11;99529.63;101974;1331;61315;-84
2022/12/12 02:12:47;;;;;;;;;;;;;;;17.41;42.95;99531.45;102041;1329;61449;-83
2022/12/12 02:15:12;;;;;;;;;;;;;;;17.41;43.04;99529.85;101961;1335;61285;-84
2022/12/12 02:17:58;;;;;;;;;;;;;;;17.41;42.92;99540.34;102097;1333;61469;-84
2022/12/12 02:20:32;;;;;;;;;;;;;;;17.40;43.03;99540.59;102102;1329;61197;-84
2022/12/12 02:23:13;;;;;;;;;;;;;;;17.40;42.97;99544.33;101978;1336;73553;-84
2022/12/12 02:25:50;;;;;;;;;;;;;;;17.40;42.93;99552.49;102037;1334;75490;-84
2022/12/12 02:28:19;;;;;;;;;;;;;;;17.39;42.86;99548.26;101983;1335;61833;-83
2022/12/12 02:30:44;;;;;;;;;;;;;;;17.39;42.84;99554.31;102081;1333;61328;-84
2022/12/12 02:33:16;;;;;;;;;;;;;;;17.38;42.83;99556.16;101972;1336;61337;-84
2022/12/12 02:36:00;;;;;;;;;;;;;;;17.38;42.83;99557.76;102049;1320;74610;-83
2022/12/12 02:38:26;;;;;;;;;;;;;;;17.38;42.97;99559.75;101963;1329;61286;-84
2022/12/12 02:40:54;;;;;;;;;;;;;;;17.38;42.85;99560.78;102054;1326;61520;-84
2022/12/12 02:43:19;;;;;;;;;;;;;;;17.38;42.85;99557.41;101979;1329;72598;-84
2022/12/12 02:45:45;;;;;;;;;;;;;;;17.38;42.80;99552.46;102053;1328;61796;-85
2022/12/12 02:48:15;;;;;;;;;;;;;;;17.38;42.69;99550.18;102092;1329;61763;-85
2022/12/12 02:50:41;;;;;;;;;;;;;;;17.37;42.80;99556.09;102005;1328;61205;-85
2022/12/12 02:53:06;;;;;;;;;;;;;;;17.37;42.67;99559.85;102056;1329;61287;-84
2022/12/12 02:55:32;;;;;;;;;;;;;;;17.36;42.65;99571.27;102059;1326;61354;-84
2022/12/12 02:57:57;;;;;;;;;;;;;;;17.36;42.65;99576.27;102076;1330;61430;-83
2022/12/12 03:00:22;;;;;;;;;;;;;;;17.36;42.60;99582.64;102004;1336;61270;-84
2022/12/12 03:02:48;;;;;;;;;;;;;;;17.36;42.72;99591.04;102054;1329;61207;-84
2022/12/12 03:08:10;;;;;;;;;;;;;;;17.35;42.49;99596.60;102063;1329;74671;-83
2022/12/12 03:10:36;;;;;;;;;;;;;;;17.35;42.56;99595.88;102082;1329;60257;-84
2022/12/12 03:13:21;;;;;;;;;;;;;;;17.35;42.49;99593.06;102070;1333;61305;-83
2022/12/12 03:15:50;;;;;;;;;;;;;;;17.35;42.58;99585.80;102057;1329;72507;-83
2022/12/12 03:18:24;;;;;;;;;;;;;;;17.35;42.57;99589.72;101989;1333;73799;-83
2022/12/12 03:20:59;;;;;;;;;;;;;;;17.34;42.47;99592.20;101966;1330;61320;-83
2022/12/12 03:23:26;;;;;;;;;;;;;;;17.34;42.35;99599.16;102047;1325;61210;-83
2022/12/12 03:25:54;;;;;;;;;;;;;;;17.34;42.35;99601.48;102085;1335;73559;-84
2022/12/12 03:28:30;;;;;;;;;;;;;;;17.34;42.47;99594.58;101968;1326;75672;-85
2022/12/12 03:30:56;;;;;;;;;;;;;;;17.33;42.34;99598.70;101986;1331;61029;-84
2022/12/12 03:33:30;;;;;;;;;;;;;;;17.33;42.41;99602.27;101952;1333;62589;-84
2022/12/12 03:36:05;;;;;;;;;;;;;;;17.33;42.44;99606.35;101981;1335;73515;-84
2022/12/12 03:38:31;;;;;;;;;;;;;;;17.33;42.48;99613.85;101975;1331;74777;-84
2022/12/12 03:41:08;;;;;;;;;;;;;;;17.33;42.27;99611.72;102080;1333;61242;-84
2022/12/12 03:43:37;;;;;;;;;;;;;;;17.33;42.37;99618.34;101980;1328;61292;-84
2022/12/12 03:46:03;;;;;;;;;;;;;;;17.32;42.36;99629.55;101964;1329;72745;-83
2022/12/12 03:48:29;;;;;;;;;;;;;;;17.32;42.30;99637.91;101954;1332;61284;-84
2022/12/12 03:50:57;;;;;;;;;;;;;;;17.32;42.21;99645.20;102076;1333;61492;-84
2022/12/12 03:53:26;;;;;;;;;;;;;;;17.32;42.27;99647.20;101988;1327;61235;-83
2022/12/12 03:55:52;;;;;;;;;;;;;;;17.32;42.14;99643.80;102060;1335;73523;-85
2022/12/12 03:58:24;;;;;;;;;;;;;;;17.32;42.32;99634.94;101951;1329;75483;-83
2022/12/12 04:00:50;;;;;;;;;;;;;;;17.31;42.19;99635.31;102054;1335;61344;-83
2022/12/12 04:03:21;;;;;;;;;;;;;;;17.31;42.17;99631.97;101967;1330;61417;-83
2022/12/12 04:12:57;;;;;;;;;;;;;;;17.30;42.09;99628.47;102059;1335;75569;-84
2022/12/12 04:14:16;;;;;;;;;;;;;;;17.30;42.08;99637.55;102051;1328;61262;-84
2022/12/12 04:16:41;;;;;;;;;;;;;;;17.30;42.02;99634.38;102042;1328;73613;-83
2022/12/12 04:19:08;;;;;;;;;;;;;;;17.29;41.95;99630.49;102073;1326;61287;-84
2022/12/12 04:24:47;;;;;;;;;;;;;;;17.29;42.08;99624.30;102079;1335;61312;-85
2022/12/12 04:27:19;;;;;;;;;;;;;;;17.29;42.15;99625.36;102111;1327;73490;-85
2022/12/12 04:29:47;;;;;;;;;;;;;;;17.29;42.07;99635.17;102060;1329;75638;-84
2022/12/12 04:32:20;;;;;;;;;;;;;;;17.28;42.00;99626.83;102079;1335;61273;-85
2022/12/12 04:34:51;;;;;;;;;;;;;;;17.28;42.01;99627.73;101962;1329;61210;-85
2022/12/12 04:37:21;;;;;;;;;;;;;;;17.28;41.92;99624.73;101976;1331;73705;-84
2022/12/12 04:39:47;;;;;;;;;;;;;;;17.28;41.95;99622.61;102052;1335;74644;-84
2022/12/12 04:42:13;;;;;;;;;;;;;;;17.27;41.91;99620.86;101964;1329;61322;-84
2022/12/12 04:44:39;;;;;;;;;;;;;;;17.27;41.88;99627.06;101984;1333;61315;-83
2022/12/12 04:47:04;;;;;;;;;;;;;;;17.27;41.87;99637.59;102080;1335;61595;-83
2022/12/12 04:49:30;;;;;;;;;;;;;;;17.26;41.80;99650.41;101973;1336;61383;-84
2022/12/12 04:51:58;;;;;;;;;;;;;;;17.26;41.90;99663.73;102001;1335;61297;-85
2022/12/12 04:54:39;;;;;;;;;;;;;;;17.25;41.81;99672.93;102003;1335;61354;-84
2022/12/12 04:57:06;;;;;;;;;;;;;;;17.24;41.82;99674.27;101990;1335;61288;-85
2022/12/12 04:59:32;;;;;;;;;;;;;;;17.21;41.80;99669.44;101998;1334;71705;-85
2022/12/12 05:02:06;;;;;;;;;;;;;;;17.20;41.73;99665.65;102076;1333;61305;-85
2022/12/12 05:04:32;;;;;;;;;;;;;;;17.18;41.69;99668.65;101973;1336;61216;-84
2022/12/12 05:06:59;;;;;;;;;;;;;;;17.16;41.64;99666.45;101980;1326;61384;-84
2022/12/12 05:09:25;;;;;;;;;;;;;;;17.15;41.71;99670.81;101982;1319;61409;-84
2022/12/12 05:11:50;;;;;;;;;;;;;;;17.14;41.68;99681.16;101948;1335;61443;-85
2022/12/12 05:14:15;;;;;;;;;;;;;;;17.14;41.66;99692.89;102106;1336;61332;-84
2022/12/12 05:17:01;;;;;;;;;;;;;;;17.14;41.65;99711.05;101984;1335;61311;-84
2022/12/12 05:19:26;;;;;;;;;;;;;;;17.15;41.72;99715.47;102082;1327;72375;-85
2022/12/12 05:21:52;;;;;;;;;;;;;;;17.16;41.78;99715.54;102058;1321;61427;-84
2022/12/12 05:24:17;;;;;;;;;;;;;;;17.17;41.73;99716.55;102000;1321;61311;-85
2022/12/12 05:26:43;;;;;;;;;;;;;;;17.17;41.73;99719.05;102017;1319;61379;-85
2022/12/12 05:29:08;;;;;;;;;;;;;;;17.16;41.75;99726.55;102014;1320;61298;-84
2022/12/12 05:31:34;;;;;;;;;;;;;;;17.15;41.69;99727.88;101868;1321;61327;-84
2022/12/12 05:33:59;;;;;;;;;;;;;;;17.14;41.62;99722.23;102002;1313;61336;-84
2022/12/12 05:36:25;;;;;;;;;;;;;;;17.14;41.57;99730.44;101907;1313;61344;-85
2022/12/12 05:38:50;;;;;;;;;;;;;;;17.14;41.53;99730.27;101945;1319;61641;-84
2022/12/12 05:41:16;;;;;;;;;;;;;;;17.14;41.37;99733.64;101927;1316;61311;-84
2022/12/12 05:43:45;;;;;;;;;;;;;;;17.13;41.35;99727.30;101945;1317;61374;-84
2022/12/12 05:46:11;;;;;;;;;;;;;;;17.13;41.20;99723.42;101945;1327;73400;-84
2022/12/12 05:48:36;;;;;;;;;;;;;;;17.12;41.25;99725.41;102050;1317;59835;-84
2022/12/12 05:51:02;;;;;;;;;;;;;;;17.13;41.17;99731.26;101868;1319;61275;-83
2022/12/12 05:53:27;;;;;;;;;;;;;;;17.13;41.27;99734.23;101894;1318;61328;-83
2022/12/12 05:55:56;;;;;;;;;;;;;;;17.13;41.20;99738.64;102063;1318;61433;-84
2022/12/12 05:58:22;;;;;;;;;;;;;;;17.14;41.11;99748.02;102000;1317;74430;-83
2022/12/12 06:00:47;;;;;;;;;;;;;;;17.15;41.17;99755.81;102080;1324;59856;-83
2022/12/12 06:03:13;;;;;;;;;;;;;;;17.15;41.12;99765.73;102040;1321;61307;-83
2022/12/12 06:05:39;;;;;;;;;;;;;;;17.16;41.07;99775.09;101925;1320;62061;-82
2022/12/12 06:08:04;;;;;;;;;;;;;;;17.17;41.06;99785.54;101878;1321;61376;-82
2022/12/12 06:10:29;;;;;;;;;;;;;;;17.18;40.95;99783.64;102065;1321;61345;-83
2022/12/12 06:12:55;;;;;;;;;;;;;;;17.20;40.80;99784.07;101777;1320;59765;-83
2022/12/12 06:15:21;;;;;;;;;;;;;;;17.22;40.81;99786.39;101800;1319;61379;-83
2022/12/12 06:17:46;;;;;;;;;;;;;;;17.24;40.62;99793.38;101851;1313;61290;-82
2022/12/12 06:20:12;;;;;;;;;;;;;;;17.28;40.58;99794.74;101982;1310;59497;-82
2022/12/12 06:22:37;;;;;;;;;;;;;;;17.31;40.64;99801.08;102001;1319;61481;-82
2022/12/12 06:25:04;;;;;;;;;;;;;;;17.36;40.66;99804.44;101981;1317;61247;-82
2022/12/12 06:27:29;;;;;;;;;;;;;;;17.42;40.59;99808.47;101980;1321;61247;-82
2022/12/12 06:29:54;;;;;;;;;;;;;;;17.48;40.43;99812.34;101945;1319;60542;-83
2022/12/12 06:32:20;;;;;;;;;;;;;;;17.51;40.45;99816.71;101976;1320;61306;-82
2022/12/12 06:34:45;;;;;;;;;;;;;;;17.53;40.38;99825.14;101896;1318;61388;-82
2022/12/12 06:37:12;;;;;;;;;;;;;;;17.54;40.18;99833.23;101940;1321;61311;-83
2022/12/12 06:39:37;;;;;;;;;;;;;;;17.55;40.11;99837.60;101885;1320;61299;-83
2022/12/12 06:42:03;;;;;;;;;;;;;;;17.57;40.15;99844.42;101864;1313;61504;-83
2022/12/12 06:44:28;;;;;;;;;;;;;;;17.58;40.11;99845.05;101947;1319;59574;-82
2022/12/12 06:46:53;;;;;;;;;;;;;;;17.60;40.05;99836.91;101938;1321;61284;-83
2022/12/12 06:49:20;;;;;;;;;;;;;;;17.62;40.04;99841.94;102149;1318;61305;-82
2022/12/12 06:51:47;;;;;;;;;;;;;;;17.63;39.98;99847.20;101972;1317;61215;-82
2022/12/12 06:54:13;;;;;;;;;;;;;;;17.65;39.98;99846.35;102122;1319;72803;-83
2022/12/12 06:56:38;;;;;;;;;;;;;;;17.64;39.81;99851.07;101749;1316;62259;-82
2022/12/12 06:59:04;;;;;;;;;;;;;;;17.62;39.88;99847.45;102015;1321;60157;-82
2022/12/12 07:01:29;;;;;;;;;;;;;;;17.62;39.88;99852.08;102123;1319;59257;-82
2022/12/12 07:03:55;;;;;;;;;;;;;;;17.62;39.83;99852.95;101987;1320;61393;-83
2022/12/12 07:06:20;;;;;;;;;;;;;;;17.64;39.89;99852.64;102080;1318;73274;-83
2022/12/12 07:08:46;;;;;;;;;;;;;;;17.67;40.06;99857.42;102156;1317;60692;-83
2022/12/12 07:11:16;;;;;;;;;;;;;;;17.70;40.00;99858.42;102061;1321;59916;-83
2022/12/12 07:13:42;;;;;;;;;;;;;;;17.74;39.98;99855.45;102083;1321;60354;-83
2022/12/12 07:16:07;;;;;;;;;;;;;;;17.78;40.00;99858.21;102147;1318;59295;-82
2022/12/12 07:18:33;;;;;;;;;;;;;;;17.81;40.00;99859.60;102011;1318;61385;-83
2022/12/12 07:21:02;;;;;;;;;;;;;;;17.85;40.06;99870.00;101943;1321;59945;-82
2022/12/12 07:23:27;;;;;;;;;;;;;;;17.88;40.03;99875.98;101993;1321;61298;-82
2022/12/12 07:25:53;;;;;;;;;;;;;;;17.93;40.09;99881.55;102028;1321;61744;-83
2022/12/12 07:28:20;;;;;;;;;;;;;;;17.97;40.00;99890.23;101901;1318;61334;-83
2022/12/12 07:30:45;;;;;;;;;;;;;;;18.00;40.11;99895.45;101948;1316;61532;-82
2022/12/12 07:33:11;;;;;;;;;;;;;;;18.03;40.07;99900.73;101978;1313;61478;-83
2022/12/12 07:35:37;;;;;;;;;;;;;;;18.06;40.25;99904.44;102014;1319;61338;-82
2022/12/12 07:38:03;;;;;;;;;;;;;;;18.09;40.26;99903.73;101926;1320;61378;-83
2022/12/12 07:40:53;;;;;;;;;;;;;;;18.12;40.07;99904.44;101880;1313;59541;-82
2022/12/12 07:43:19;;;;;;;;;;;;;;;18.15;40.24;99902.61;101792;1324;61279;-83
2022/12/12 07:45:45;;;;;;;;;;;;;;;18.16;40.42;99901.05;101642;1325;61316;-82
2022/12/12 07:48:13;;;;;;;;;;;;;;;18.19;40.50;99904.45;101689;1321;61182;-82
2022/12/12 07:50:39;;;;;;;;;;;;;;;18.21;40.50;99897.85;101714;1317;60287;-83
2022/12/12 07:53:05;;;;;;;;;;;;;;;18.23;40.57;99899.52;101630;1324;59752;-82
2022/12/12 07:55:30;;;;;;;;;;;;;;;18.22;40.69;99899.73;101634;1325;61723;-83
2022/12/12 07:57:56;;;;;;;;;;;;;;;18.22;40.70;99904.16;101846;1323;61266;-85
2022/12/12 08:00:22;;;;;;;;;;;;;;;18.22;40.84;99907.20;101840;1323;60069;-85
2022/12/12 08:02:47;;;;;;;;;;;;;;;18.23;40.75;99905.95;101783;1326;60199;-85
2022/12/12 08:05:13;;;;;;;;;;;;;;;18.23;40.82;99897.01;101747;1324;60063;-85
2022/12/12 08:07:38;;;;;;;;;;;;;;;18.24;40.94;99899.75;101716;1324;61761;-85
2022/12/12 08:10:05;;;;;;;;;;;;;;;18.22;40.79;99897.74;101650;1322;59991;-83
2022/12/12 08:12:31;;;;;;;;;;;;;;;18.21;40.82;99907.33;101731;1324;61246;-83
2022/12/12 08:14:57;;;;;;;;;;;;;;;18.20;40.83;99909.52;101734;1320;61465;-83
2022/12/12 08:17:24;;;;;;;;;;;;;;;18.20;40.99;99909.33;101201;1325;678712;-83
2022/12/12 08:19:50;;;;;;;;;;;;;;;18.20;40.99;99908.94;101779;1331;61307;-83
2022/12/12 08:22:15;;;;;;;;;;;;;;;18.22;41.05;99916.32;102045;1320;59498;-83
2022/12/12 08:24:41;;;;;;;;;;;;;;;18.24;40.93;99930.73;101939;1320;60539;-83
2022/12/12 08:27:07;;;;;;;;;;;;;;;18.26;41.18;99932.75;101911;1321;59817;-83
2022/12/12 08:29:32;;;;;;;;;;;;;;;18.29;41.02;99933.98;101890;1319;61290;-84
2022/12/12 08:31:59;;;;;;;;;;;;;;;18.32;41.02;99928.95;101899;1321;72659;-84
2022/12/12 08:34:25;;;;;;;;;;;;;;;18.34;41.10;99929.86;101965;1320;61436;-83
2022/12/12 08:36:51;;;;;;;;;;;;;;;18.36;41.17;99930.40;101853;1318;59773;-83
2022/12/12 08:39:23;;;;;;;;;;;;;;;18.39;41.16;99926.84;101979;1313;61279;-83
2022/12/12 08:41:49;;;;;;;;;;;;;;;18.41;41.35;99922.20;101840;1318;73658;-83
2022/12/12 08:44:15;;;;;;;;;;;;;;;18.44;41.33;99921.49;102895;1334;59528;-83
2022/12/12 08:46:41;;;;;;;;;;;;;;;18.46;41.45;99929.33;102091;1318;61203;-82
2022/12/12 08:49:07;;;;;;;;;;;;;;;18.49;41.56;99930.40;101908;1318;61327;-82
2022/12/12 08:51:33;;;;;;;;;;;;;;;18.51;41.62;99932.21;101950;1313;61288;-82
2022/12/12 08:53:58;;;;;;;;;;;;;;;18.53;41.58;99926.90;102015;1313;60240;-82
2022/12/12 08:56:24;;;;;;;;;;;;;;;18.54;41.63;99925.70;101993;1313;61327;-83
2022/12/12 08:58:49;;;;;;;;;;;;;;;18.56;41.76;99928.27;101867;1321;61352;-83
2022/12/12 09:01:18;;;;;;;;;;;;;;;18.57;41.79;99927.98;102165;1313;61328;-82
2022/12/12 09:03:44;;;;;;;;;;;;;;;18.58;41.83;99923.45;102026;1320;72469;-82
2022/12/12 09:06:13;;;;;;;;;;;;;;;18.55;41.87;99921.90;102027;1321;59930;-83
2022/12/12 09:08:38;;;;;;;;;;;;;;;18.51;41.99;99921.86;102028;1323;61362;-83
2022/12/12 09:11:04;;;;;;;;;;;;;;;18.48;41.99;99919.80;102096;1319;61324;-84
2022/12/12 09:13:29;;;;;;;;;;;;;;;18.45;42.00;99912.54;102027;1320;59331;-85
2022/12/12 09:15:55;;;;;;;;;;;;;;;18.44;42.03;99911.67;101934;1320;61316;-84
2022/12/12 09:18:20;;;;;;;;;;;;;;;18.45;42.05;99915.52;101964;1319;61433;-85
2022/12/12 09:20:49;;;;;;;;;;;;;;;18.47;42.16;99917.91;101921;1320;61723;-82
2022/12/12 09:23:15;;;;;;;;;;;;;;;18.47;42.25;99916.48;102150;1321;60231;-83
2022/12/12 09:25:40;;;;;;;;;;;;;;;18.45;41.95;99925.88;102014;1329;61378;-83
2022/12/12 09:28:06;;;;;;;;;;;;;;;18.41;41.90;99928.42;101898;1327;61342;-83
2022/12/12 09:30:34;;;;;;;;;;;;;;;18.38;41.72;99930.08;102323;1326;59425;-84
2022/12/12 09:32:59;;;;;;;;;;;;;;;18.36;41.91;99925.13;101891;1320;59937;-83
2022/12/12 09:35:25;;;;;;;;;;;;;;;18.33;41.97;99922.83;102016;1320;59295;-83
2022/12/12 09:37:50;;;;;;;;;;;;;;;18.30;41.74;99931.95;101962;1318;61296;-84
2022/12/12 09:40:16;;;;;;;;;;;;;;;18.26;41.82;99941.27;101928;1321;59437;-84
2022/12/12 09:42:45;;;;;;;;;;;;;;;18.23;41.85;99945.45;101880;1321;59971;-84
2022/12/12 09:45:11;;;;;;;;;;;;;;;18.20;41.63;99944.80;101952;1317;61232;-84
2022/12/12 09:47:40;;;;;;;;;;;;;;;18.16;41.50;99939.74;101966;1321;61295;-84
2022/12/12 09:50:15;;;;;;;;;;;;;;;18.11;41.47;99933.14;101936;1318;74618;-84
2022/12/12 09:52:41;;;;;;;;;;;;;;;18.08;41.51;99931.72;102056;1313;61325;-84
2022/12/12 09:55:20;;;;;;;;;;;;;;;18.07;41.35;99931.46;101930;1314;61344;-85
2022/12/12 09:58:10;;;;;;;;;;;;;;;18.07;41.15;99927.73;101905;1314;72931;-84
2022/12/12 10:00:37;;;;;;;;;;;;;;;18.06;41.23;99922.98;101963;1320;73585;-84
2022/12/12 10:03:08;;;;;;;;;;;;;;;18.04;41.16;99923.98;102016;1319;60210;-85
2022/12/12 10:05:37;;;;;;;;;;;;;;;17.97;40.98;99918.50;101971;1321;59178;-84
2022/12/12 10:08:05;;;;;;;;;;;;;;;17.88;41.04;99908.21;102513;1316;72622;-84
2022/12/12 10:10:38;;;;;;;;;;;;;;;17.87;41.02;99913.63;102654;1337;74154;-84
2022/12/12 10:13:03;;;;;;;;;;;;;;;17.90;40.96;99916.78;102614;1327;60099;-84
2022/12/12 10:15:39;;;;;;;;;;;;;;;17.92;41.15;99916.85;102763;1333;59216;-83
2022/12/12 10:18:06;;;;;;;;;;;;;;;17.95;41.13;99917.19;102232;1319;72266;-83
2022/12/12 10:20:32;;;;;;;;;;;;;;;17.99;41.15;99911.25;101521;1320;75711;-83
2022/12/12 10:23:03;;;;;;;;;;;;;;;17.98;41.21;99905.39;101892;1321;61354;-84
2022/12/12 10:25:47;;;;;;;;;;;;;;;17.96;41.07;99908.96;101913;1319;61267;-84
2022/12/12 10:28:13;;;;;;;;;;;;;;;17.96;41.36;99910.02;102069;1321;73488;-84
2022/12/12 10:30:57;;;;;;;;;;;;;;;17.99;41.35;99915.11;102743;1321;59347;-83
2022/12/12 10:33:30;;;;;;;;;;;;;;;18.05;41.41;99918.78;102885;1323;60906;-82
2022/12/12 10:36:02;;;;;;;;;;;;;;;18.11;41.42;99918.04;102874;1326;59484;-84
2022/12/12 10:38:48;;;;;;;;;;;;;;;18.16;41.44;99918.02;102704;1320;72441;-82
2022/12/12 10:41:14;;;;;;;;;;;;;;;18.18;41.53;99908.77;102035;1317;75147;-82
2022/12/12 10:43:53;;;;;;;;;;;;;;;18.20;41.47;99907.70;102106;1316;61324;-83
2022/12/12 10:46:24;;;;;;;;;;;;;;;18.24;41.53;99913.70;102863;1327;60316;-83
2022/12/12 10:48:51;;;;;;;;;;;;;;;18.26;41.72;99916.70;102797;1332;73556;-82
2022/12/12 10:51:17;;;;;;;;;;;;;;;18.29;41.66;99917.81;102672;1331;75855;-85
2022/12/12 10:53:43;;;;;;;;;;;;;;;18.31;41.85;99915.33;102670;1329;60041;-82
2022/12/12 10:56:09;;;;;;;;;;;;;;;18.33;42.06;99915.51;102773;1327;59390;-84
2022/12/12 10:58:50;;;;;;;;;;;;;;;18.36;41.97;99918.14;102794;1321;58895;-83
2022/12/12 11:01:20;;;;;;;;;;;;;;;18.37;42.02;99915.38;102765;1320;75395;-83
2022/12/12 11:03:49;;;;;;;;;;;;;;;18.32;41.85;99915.77;102697;1327;60732;-83
2022/12/12 11:06:17;;;;;;;;;;;;;;;18.18;41.75;99921.92;102743;1326;60152;-83
2022/12/12 11:08:59;;;;;;;;;;;;;;;18.10;41.67;99925.88;102840;1314;71970;-83
2022/12/12 11:11:25;;;;;;;;;;;;;;;18.08;41.73;99922.14;102819;1332;74580;-85
2022/12/12 11:13:50;;;;;;;;;;;;;;;18.07;41.65;99919.56;102738;1321;59416;-85
2022/12/12 11:16:17;;;;;;;;;;;;;;;18.06;41.83;99926.05;102791;1327;59326;-84
2022/12/12 11:18:50;;;;;;;;;;;;;;;18.03;41.71;99926.06;102559;1331;59532;-84
2022/12/12 11:21:15;;;;;;;;;;;;;;;18.03;41.55;99925.16;102691;1335;75385;-84
2022/12/12 11:23:43;;;;;;;;;;;;;;;18.04;41.69;99927.59;102799;1326;59040;-84
2022/12/12 11:26:13;;;;;;;;;;;;;;;18.02;41.73;99928.64;102406;1316;61544;-84
2022/12/12 11:28:38;;;;;;;;;;;;;;;18.01;41.72;99933.67;102108;1330;73451;-82
2022/12/12 11:31:06;;;;;;;;;;;;;;;18.01;41.70;99934.00;102035;1321;61322;-83
2022/12/12 11:33:50;;;;;;;;;;;;;;;18.02;41.53;99931.67;102015;1313;60380;-84
2022/12/12 11:36:22;;;;;;;;;;;;;;;18.02;41.50;99930.92;102023;1321;61109;-85
2022/12/12 11:38:52;;;;;;;;;;;;;;;18.03;41.38;99929.11;102020;1321;74245;-85
2022/12/12 11:41:17;;;;;;;;;;;;;;;18.03;41.37;99931.73;102055;1321;75999;-85
2022/12/12 11:43:43;;;;;;;;;;;;;;;18.03;41.24;99929.79;101918;1320;61401;-85
2022/12/12 11:46:14;;;;;;;;;;;;;;;18.01;41.21;99929.77;102040;1317;61260;-84
2022/12/12 11:48:43;;;;;;;;;;;;;;;18.00;41.15;99931.11;101939;1321;72684;-83
2022/12/12 11:51:10;;;;;;;;;;;;;;;17.98;41.23;99937.08;102043;1321;74570;-83
2022/12/12 11:53:40;;;;;;;;;;;;;;;17.97;41.08;99933.45;102101;1313;59880;-83
2022/12/12 11:56:08;;;;;;;;;;;;;;;17.89;41.04;99932.55;102055;1313;60513;-83
2022/12/12 11:58:38;;;;;;;;;;;;;;;17.87;41.06;99928.96;102162;1316;72826;-84
2022/12/12 12:01:14;;;;;;;;;;;;;;;17.86;40.95;99933.80;102727;1320;74397;-84
2022/12/12 12:03:57;;;;;;;;;;;;;;;17.84;40.78;99934.65;102805;1323;60043;-85
2022/12/12 12:06:45;;;;;;;;;;;;;;;17.80;40.61;99932.67;102765;1317;60256;-84
2022/12/12 12:09:11;;;;;;;;;;;;;;;17.79;40.68;99928.48;102452;1337;71461;-84
2022/12/12 12:11:36;;;;;;;;;;;;;;;17.80;40.72;99930.33;102554;1321;61197;-84
2022/12/12 12:14:14;;;;;;;;;;;;;;;17.73;40.59;99936.88;102281;1321;61327;-83
2022/12/12 12:16:43;;;;;;;;;;;;;;;17.67;40.82;99936.21;102142;1321;61251;-83
2022/12/12 12:19:08;;;;;;;;;;;;;;;17.68;40.77;99934.21;102977;1326;73641;-83
2022/12/12 12:21:40;;;;;;;;;;;;;;;17.64;40.86;99935.38;102875;1317;59821;-83
2022/12/12 12:24:11;;;;;;;;;;;;;;;17.63;40.67;99933.33;102127;1321;61236;-82
2022/12/12 12:26:43;;;;;;;;;;;;;;;17.60;40.58;99934.57;102042;1329;61375;-83
2022/12/12 12:29:11;;;;;;;;;;;;;;;17.60;40.55;99934.73;101916;1320;72660;-83
2022/12/12 12:31:40;;;;;;;;;;;;;;;17.62;40.57;99944.97;102004;1320;74899;-84
2022/12/12 12:34:08;;;;;;;;;;;;;;;17.63;40.57;99949.66;101978;1321;60244;-83
2022/12/12 12:36:40;;;;;;;;;;;;;;;17.66;40.71;99941.84;102025;1320;61079;-82
2022/12/12 12:39:06;;;;;;;;;;;;;;;17.68;40.68;99934.91;101916;1313;72915;-83
2022/12/12 12:41:45;;;;;;;;;;;;;;;17.71;40.77;99936.81;101929;1321;61319;-83
2022/12/12 12:44:22;;;;;;;;;;;;;;;17.75;40.66;99937.27;101905;1320;61299;-83
2022/12/12 12:46:55;;;;;;;;;;;;;;;17.78;40.67;99942.08;102065;1319;61496;-82
2022/12/12 12:49:22;;;;;;;;;;;;;;;17.82;40.76;99939.98;101985;1320;72539;-83
2022/12/12 12:52:08;;;;;;;;;;;;;;;17.86;40.77;99937.40;102322;1321;74410;-83